Time;durP1;ratioP1;P1;durP2;ratioP2;P2;SDS_P1;SDS_P2;PMS_P1;PMS_P2;Temp;Humidity;BMP_temperature;BMP_pressure;BME280_temperature;BME280_humidity;BME280_pressure;Samples;Min_cycle;Max_cycle;Signal;HPM_P1;HPM_P2
2021/08/12 00:01:32;;;;;;;;;;;;;;;15.75;65.61;100489.33;126872;1088;103032;-79
2021/08/12 00:04:20;;;;;;;;;;;;;;;15.70;65.72;100493.05;126776;1089;101866;-79
2021/08/12 00:07:08;;;;;;;;;;;;;;;15.67;65.78;100492.35;126855;1087;102973;-80
2021/08/12 00:09:57;;;;;;;;;;;;;;;15.61;65.81;100492.63;126782;1090;102890;-78
2021/08/12 00:12:45;;;;;;;;;;;;;;;15.59;66.14;100495.34;126775;1087;102657;-79
2021/08/12 00:15:32;;;;;;;;;;;;;;;15.53;66.27;100495.61;126735;1088;101748;-79
2021/08/12 00:18:20;;;;;;;;;;;;;;;15.50;66.20;100497.55;126822;1090;102910;-79
2021/08/12 00:21:09;;;;;;;;;;;;;;;15.43;66.39;100502.23;126610;1088;102980;-79
2021/08/12 00:23:57;;;;;;;;;;;;;;;15.38;66.63;100499.83;126808;1089;102895;-79
2021/08/12 00:26:45;;;;;;;;;;;;;;;15.34;66.69;100500.05;126821;1090;102933;-79
2021/08/12 00:29:33;;;;;;;;;;;;;;;15.30;66.64;100495.88;126812;1087;102928;-79
2021/08/12 00:32:22;;;;;;;;;;;;;;;15.30;66.97;100496.73;126791;1087;103001;-79
2021/08/12 00:35:10;;;;;;;;;;;;;;;15.29;66.72;100502.91;126715;1090;102996;-79
2021/08/12 00:37:59;;;;;;;;;;;;;;;15.30;67.10;100496.73;126770;1087;102875;-79
2021/08/12 00:40:47;;;;;;;;;;;;;;;15.31;67.17;100500.20;126718;1090;102957;-79
2021/08/12 00:43:34;;;;;;;;;;;;;;;15.32;67.08;100504.53;126759;1089;102902;-78
2021/08/12 00:46:22;;;;;;;;;;;;;;;15.34;66.87;100502.69;126710;1088;102975;-78
2021/08/12 00:49:11;;;;;;;;;;;;;;;15.33;67.36;100503.61;126799;1089;102969;-78
2021/08/12 00:52:02;;;;;;;;;;;;;;;15.25;67.22;100501.33;126739;1090;103030;-78
2021/08/12 00:54:54;;;;;;;;;;;;;;;15.18;67.34;100509.58;126739;1090;102992;-78
2021/08/12 00:57:42;;;;;;;;;;;;;;;15.14;67.56;100497.52;126695;1088;100790;-78
2021/08/12 01:00:33;;;;;;;;;;;;;;;15.07;67.85;100513.55;126824;1090;102879;-78
2021/08/12 01:03:20;;;;;;;;;;;;;;;15.07;68.02;100513.55;126696;1089;102879;-77
2021/08/12 01:06:11;;;;;;;;;;;;;;;15.06;67.85;100511.84;126802;1087;102871;-79
2021/08/12 01:09:06;;;;;;;;;;;;;;;15.02;68.16;100510.30;126802;1087;102958;-79
2021/08/12 01:11:58;;;;;;;;;;;;;;;15.00;68.23;100506.89;126724;1088;102874;-79
2021/08/12 01:15:16;;;;;;;;;;;;;;;14.99;68.27;100505.19;126797;1088;103131;-79
2021/08/12 01:18:14;;;;;;;;;;;;;;;14.93;68.27;100510.73;126650;1090;102946;-79
2021/08/12 01:21:17;;;;;;;;;;;;;;;14.89;68.31;100511.77;126848;1087;103399;-78
2021/08/12 01:24:07;;;;;;;;;;;;;;;14.85;68.60;100511.98;126701;1087;102883;-79
2021/08/12 01:26:59;;;;;;;;;;;;;;;14.81;68.58;100514.75;126820;1090;101207;-78
2021/08/12 01:30:03;;;;;;;;;;;;;;;14.78;68.78;100520.16;126709;1090;101285;-78
2021/08/12 01:33:08;;;;;;;;;;;;;;;14.71;68.83;100517.85;126771;1090;102679;-79
2021/08/12 01:35:57;;;;;;;;;;;;;;;14.68;69.02;100518.00;126715;1090;103351;-79
2021/08/12 01:38:46;;;;;;;;;;;;;;;14.65;68.92;100520.77;126769;1090;102987;-78
2021/08/12 01:41:37;;;;;;;;;;;;;;;14.65;69.33;100523.39;126741;1089;102884;-79
2021/08/12 01:44:26;;;;;;;;;;;;;;;14.66;69.17;100523.31;126768;1089;102845;-79
2021/08/12 01:47:14;;;;;;;;;;;;;;;14.69;69.50;100530.20;126657;1089;102877;-79
2021/08/12 01:50:04;;;;;;;;;;;;;;;14.68;69.52;100531.13;126830;1090;102987;-79
2021/08/12 01:52:52;;;;;;;;;;;;;;;14.65;69.47;100526.02;126733;1088;102925;-79
2021/08/12 01:55:42;;;;;;;;;;;;;;;14.59;69.55;100528.92;126798;1089;102859;-79
2021/08/12 01:58:31;;;;;;;;;;;;;;;14.55;69.66;100530.83;126675;1087;102982;-79
2021/08/12 02:01:19;;;;;;;;;;;;;;;14.49;69.68;100528.45;126754;1088;102941;-78
2021/08/12 02:04:07;;;;;;;;;;;;;;;14.42;69.93;100530.47;126692;1088;103011;-78
2021/08/12 02:06:56;;;;;;;;;;;;;;;14.39;70.32;100527.14;126795;1090;102753;-78
2021/08/12 02:09:44;;;;;;;;;;;;;;;14.32;70.06;100534.41;126705;1087;103056;-79
2021/08/12 02:12:34;;;;;;;;;;;;;;;14.30;70.46;100541.48;126793;1090;102897;-78
2021/08/12 02:15:22;;;;;;;;;;;;;;;14.30;70.29;100535.39;126795;1088;103004;-78
2021/08/12 02:18:10;;;;;;;;;;;;;;;14.33;70.71;100540.50;126740;1088;103032;-78
2021/08/12 02:21:00;;;;;;;;;;;;;;;14.31;70.55;100542.34;126781;1090;102884;-78
2021/08/12 02:24:10;;;;;;;;;;;;;;;14.28;70.60;100543.33;126732;1089;102862;-78
2021/08/12 02:27:18;;;;;;;;;;;;;;;14.23;70.87;100544.45;126788;1089;102880;-78
2021/08/12 02:30:07;;;;;;;;;;;;;;;14.20;70.77;100545.44;126683;1090;102942;-78
2021/08/12 02:32:55;;;;;;;;;;;;;;;14.15;71.16;100540.36;126805;1089;102989;-79
2021/08/12 02:35:43;;;;;;;;;;;;;;;14.13;71.10;100543.97;126725;1089;102937;-79
2021/08/12 02:38:31;;;;;;;;;;;;;;;14.13;71.29;100546.59;126793;1090;102894;-78
2021/08/12 02:41:21;;;;;;;;;;;;;;;14.09;71.25;100545.02;126761;1087;102924;-78
2021/08/12 02:44:11;;;;;;;;;;;;;;;14.08;71.43;100548.56;126816;1087;102901;-78
2021/08/12 02:47:00;;;;;;;;;;;;;;;14.07;71.41;100544.23;126678;1090;102894;-78
2021/08/12 02:49:49;;;;;;;;;;;;;;;14.06;71.67;100555.65;126826;1088;102863;-78
2021/08/12 02:52:37;;;;;;;;;;;;;;;14.06;71.48;100550.41;126750;1089;102871;-78
2021/08/12 02:55:26;;;;;;;;;;;;;;;14.04;71.67;100541.75;126838;1090;103422;-78
2021/08/12 02:58:15;;;;;;;;;;;;;;;14.02;71.50;100548.83;126665;1089;103007;-78
2021/08/12 03:01:04;;;;;;;;;;;;;;;14.00;71.66;100548.87;126818;1089;102998;-79
2021/08/12 03:03:52;;;;;;;;;;;;;;;13.98;71.77;100548.08;126701;1089;102894;-79
2021/08/12 03:06:40;;;;;;;;;;;;;;;13.93;71.73;100544.80;126851;1089;102848;-79
2021/08/12 03:09:29;;;;;;;;;;;;;;;13.90;71.90;100542.31;126810;1089;102842;-79
2021/08/12 03:12:21;;;;;;;;;;;;;;;13.84;71.82;100548.67;126671;1088;102900;-79
2021/08/12 03:15:09;;;;;;;;;;;;;;;13.79;72.12;100547.98;126697;1090;102872;-79
2021/08/12 03:17:59;;;;;;;;;;;;;;;13.77;72.50;100546.34;126707;1089;102958;-79
2021/08/12 03:20:47;;;;;;;;;;;;;;;13.70;72.22;100545.75;126769;1089;103007;-80
2021/08/12 03:23:36;;;;;;;;;;;;;;;13.68;72.24;100552.82;126739;1089;102876;-79
2021/08/12 03:26:24;;;;;;;;;;;;;;;13.69;72.63;100548.43;126791;1088;102876;-79
2021/08/12 03:29:12;;;;;;;;;;;;;;;13.68;72.58;100552.82;126747;1088;104973;-79
2021/08/12 03:32:00;;;;;;;;;;;;;;;13.70;72.46;100550.98;126872;1089;102911;-79
2021/08/12 03:34:48;;;;;;;;;;;;;;;13.75;72.74;100553.42;126748;1089;102924;-78
2021/08/12 03:37:36;;;;;;;;;;;;;;;13.76;72.70;100555.97;126833;1088;102877;-79
2021/08/12 03:40:25;;;;;;;;;;;;;;;13.78;72.72;100569.02;126748;1090;102865;-79
2021/08/12 03:43:12;;;;;;;;;;;;;;;13.75;72.80;100564.75;126849;1089;102651;-79
2021/08/12 03:45:59;;;;;;;;;;;;;;;13.79;72.76;100565.48;126679;1090;102984;-79
2021/08/12 03:48:48;;;;;;;;;;;;;;;13.80;72.70;100572.42;126847;1089;102955;-79
2021/08/12 03:51:36;;;;;;;;;;;;;;;13.84;72.72;100567.02;126758;1089;102889;-78
2021/08/12 03:54:24;;;;;;;;;;;;;;;13.88;72.76;100576.46;126864;1089;102944;-78
2021/08/12 03:57:12;;;;;;;;;;;;;;;13.93;72.80;100570.17;126800;1089;102868;-78
2021/08/12 04:00:06;;;;;;;;;;;;;;;13.97;72.84;100566.50;126725;1089;102857;-78
2021/08/12 04:02:59;;;;;;;;;;;;;;;13.99;72.68;100570.77;126855;1088;102962;-78
2021/08/12 04:05:47;;;;;;;;;;;;;;;14.06;72.71;100579.25;126752;1090;103047;-78
2021/08/12 04:08:35;;;;;;;;;;;;;;;14.11;72.58;100582.53;126776;1090;102880;-79
2021/08/12 04:11:23;;;;;;;;;;;;;;;14.16;72.80;100575.31;126563;1090;102947;-78
2021/08/12 04:14:11;;;;;;;;;;;;;;;14.23;72.62;100582.03;126832;1088;102874;-79
2021/08/12 04:16:59;;;;;;;;;;;;;;;14.30;72.58;100582.61;126750;1087;103029;-79
2021/08/12 04:19:47;;;;;;;;;;;;;;;14.34;72.37;100595.53;126820;1088;102920;-80
2021/08/12 04:22:34;;;;;;;;;;;;;;;14.38;72.24;100591.89;126585;1090;103371;-79
2021/08/12 04:25:22;;;;;;;;;;;;;;;14.42;72.35;100593.45;126885;1090;102850;-79
2021/08/12 04:28:09;;;;;;;;;;;;;;;14.47;72.39;100590.66;126710;1088;102857;-79
2021/08/12 04:30:57;;;;;;;;;;;;;;;14.50;72.01;100596.63;126794;1088;102865;-79
2021/08/12 04:33:44;;;;;;;;;;;;;;;14.60;72.04;100586.59;126829;1089;102346;-79
2021/08/12 04:36:32;;;;;;;;;;;;;;;14.70;71.66;100595.77;126716;1090;102894;-79
2021/08/12 04:39:19;;;;;;;;;;;;;;;14.76;71.73;100603.39;126852;1090;103431;-79
2021/08/12 04:42:07;;;;;;;;;;;;;;;14.88;71.43;100599.35;126745;1088;103002;-78
2021/08/12 04:44:56;;;;;;;;;;;;;;;15.02;71.39;100602.23;126796;1090;102948;-78
2021/08/12 04:47:44;;;;;;;;;;;;;;;15.14;71.60;100598.20;126766;1087;102934;-78
2021/08/12 04:50:34;;;;;;;;;;;;;;;15.26;70.92;100597.66;126812;1090;102895;-78
2021/08/12 04:53:24;;;;;;;;;;;;;;;15.36;70.70;100595.44;126691;1088;103009;-79
2021/08/12 04:56:13;;;;;;;;;;;;;;;15.57;70.78;100601.47;126870;1090;102759;-78
2021/08/12 04:59:01;;;;;;;;;;;;;;;16.22;70.86;100598.32;126736;1090;102984;-79
2021/08/12 05:01:52;;;;;;;;;;;;;;;17.92;70.06;100598.05;126786;1090;102972;-80
2021/08/12 05:04:41;;;;;;;;;;;;;;;20.06;67.12;100588.41;126791;1088;102863;-79
2021/08/12 05:07:28;;;;;;;;;;;;;;;22.20;63.38;100581.31;126957;1088;102854;-79
2021/08/12 05:10:17;;;;;;;;;;;;;;;24.06;58.72;100580.73;126745;1090;102847;-79
2021/08/12 05:13:06;;;;;;;;;;;;;;;25.80;55.66;100570.94;126806;1090;102955;-79
2021/08/12 05:15:54;;;;;;;;;;;;;;;27.48;52.36;100567.64;126810;1090;102968;-79
2021/08/12 05:18:42;;;;;;;;;;;;;;;29.10;49.44;100562.80;126701;1090;102969;-79
2021/08/12 05:21:31;;;;;;;;;;;;;;;30.51;46.52;100560.00;126812;1089;102890;-79
2021/08/12 05:24:19;;;;;;;;;;;;;;;31.74;43.80;100571.22;126737;1088;102871;-79
2021/08/12 05:27:06;;;;;;;;;;;;;;;32.66;41.17;100567.41;126812;1090;102897;-79
2021/08/12 05:29:55;;;;;;;;;;;;;;;33.54;39.64;100565.72;126693;1090;103364;-78
2021/08/12 05:32:47;;;;;;;;;;;;;;;34.36;37.29;100577.00;126772;1089;102824;-79
2021/08/12 05:35:36;;;;;;;;;;;;;;;35.06;36.17;100583.33;126807;1090;102876;-79
2021/08/12 05:38:24;;;;;;;;;;;;;;;35.69;34.00;100590.27;126870;1087;103031;-79
2021/08/12 05:41:13;;;;;;;;;;;;;;;36.15;33.26;100594.97;126806;1088;102884;-79
2021/08/12 05:44:00;;;;;;;;;;;;;;;36.76;32.55;100593.91;126792;1087;102881;-78
2021/08/12 05:46:48;;;;;;;;;;;;;;;37.27;31.07;100596.76;126850;1090;102964;-79
2021/08/12 05:49:36;;;;;;;;;;;;;;;38.00;30.50;100593.66;126693;1089;102996;-79
2021/08/12 05:52:24;;;;;;;;;;;;;;;38.40;29.29;100597.75;126740;1088;103375;-79
2021/08/12 05:55:12;;;;;;;;;;;;;;;38.93;28.10;100594.53;126660;1090;102955;-79
2021/08/12 05:57:59;;;;;;;;;;;;;;;39.26;27.58;100596.07;126866;1090;102865;-79
2021/08/12 06:00:46;;;;;;;;;;;;;;;39.54;26.60;100596.38;126699;1089;102865;-79
2021/08/12 06:03:34;;;;;;;;;;;;;;;40.06;26.34;100596.69;126887;1090;103013;-79
2021/08/12 06:06:22;;;;;;;;;;;;;;;40.20;25.07;100588.25;126875;1089;102733;-79
2021/08/12 06:09:09;;;;;;;;;;;;;;;40.48;25.17;100596.64;126804;1090;102950;-79
2021/08/12 06:11:58;;;;;;;;;;;;;;;40.54;24.29;100598.41;126873;1089;102971;-79
2021/08/12 06:14:45;;;;;;;;;;;;;;;40.76;23.79;100604.13;126770;1090;102855;-79
2021/08/12 06:17:37;;;;;;;;;;;;;;;41.03;23.34;100604.47;126817;1090;102804;-79
2021/08/12 06:20:24;;;;;;;;;;;;;;;41.40;22.87;100598.68;126817;1089;102997;-79
2021/08/12 06:23:12;;;;;;;;;;;;;;;41.32;22.17;100603.48;126962;1090;102885;-80
2021/08/12 06:25:59;;;;;;;;;;;;;;;41.43;22.67;100595.45;126784;1089;102938;-79
2021/08/12 06:28:49;;;;;;;;;;;;;;;41.56;22.36;100598.73;126810;1089;102917;-79
2021/08/12 06:31:38;;;;;;;;;;;;;;;41.54;22.01;100602.80;126786;1090;102807;-80
2021/08/12 06:34:27;;;;;;;;;;;;;;;41.64;22.10;100603.80;126736;1089;102886;-79
2021/08/12 06:37:15;;;;;;;;;;;;;;;41.95;21.33;100602.48;126735;1087;102988;-79
2021/08/12 06:40:03;;;;;;;;;;;;;;;42.10;20.69;100604.69;126873;1087;102895;-79
2021/08/12 06:42:52;;;;;;;;;;;;;;;42.30;20.98;100606.94;126726;1090;102972;-79
2021/08/12 06:45:41;;;;;;;;;;;;;;;42.53;20.66;100605.94;126981;1089;102884;-79
2021/08/12 06:48:30;;;;;;;;;;;;;;;42.75;20.05;100604.09;126881;1088;103979;-79
2021/08/12 06:51:18;;;;;;;;;;;;;;;42.78;19.98;100605.50;126800;1090;102914;-78
2021/08/12 06:54:05;;;;;;;;;;;;;;;43.01;19.91;100609.95;126828;1090;102856;-79
2021/08/12 06:56:53;;;;;;;;;;;;;;;43.13;19.34;100608.74;126690;1090;102817;-79
2021/08/12 06:59:41;;;;;;;;;;;;;;;43.18;19.18;100598.91;126852;1088;102866;-79
2021/08/12 07:02:29;;;;;;;;;;;;;;;43.43;18.92;100608.28;126745;1088;103130;-80
2021/08/12 07:05:18;;;;;;;;;;;;;;;43.33;18.89;100607.36;126885;1089;102869;-79
2021/08/12 07:08:09;;;;;;;;;;;;;;;43.42;18.49;100612.13;126720;1088;102860;-79
2021/08/12 07:10:57;;;;;;;;;;;;;;;43.11;18.43;100612.83;126788;1089;102923;-79
2021/08/12 07:13:46;;;;;;;;;;;;;;;42.84;18.25;100610.79;126772;1088;102888;-79
2021/08/12 07:16:34;;;;;;;;;;;;;;;42.67;18.05;100611.91;126832;1087;102866;-80
2021/08/12 07:19:22;;;;;;;;;;;;;;;42.47;18.42;100617.89;126776;1087;102855;-80
2021/08/12 07:22:10;;;;;;;;;;;;;;;42.19;17.93;100625.14;126867;1090;102852;-79
2021/08/12 07:24:58;;;;;;;;;;;;;;;41.83;18.01;100628.27;126700;1088;102857;-78
2021/08/12 07:27:49;;;;;;;;;;;;;;;41.65;18.33;100623.80;126850;1090;103008;-79
2021/08/12 07:30:38;;;;;;;;;;;;;;;41.54;18.61;100619.22;126851;1088;102962;-79
2021/08/12 07:33:25;;;;;;;;;;;;;;;41.60;18.66;100623.71;126759;1087;102875;-79
2021/08/12 07:36:13;;;;;;;;;;;;;;;41.74;18.47;100625.11;126853;1090;102850;-79
2021/08/12 07:39:01;;;;;;;;;;;;;;;41.62;17.81;100625.13;126645;1088;102904;-79
2021/08/12 07:42:00;;;;;;;;;;;;;;;41.67;18.92;100626.36;126855;1090;102866;-79
2021/08/12 07:44:48;;;;;;;;;;;;;;;41.75;18.10;100628.69;126760;1088;102865;-80
2021/08/12 07:47:36;;;;;;;;;;;;;;;41.85;18.52;100624.23;126858;1088;102937;-80
2021/08/12 07:50:24;;;;;;;;;;;;;;;41.37;18.25;100627.38;126677;1087;102995;-80
2021/08/12 07:53:11;;;;;;;;;;;;;;;41.14;19.13;100630.15;126776;1087;103001;-80
2021/08/12 07:56:00;;;;;;;;;;;;;;;41.25;18.56;100627.39;126838;1090;103010;-80
2021/08/12 07:58:48;;;;;;;;;;;;;;;40.93;18.89;100626.95;126938;1088;102967;-80
2021/08/12 08:01:37;;;;;;;;;;;;;;;40.65;18.73;100632.30;126791;1089;102928;-80
2021/08/12 08:04:27;;;;;;;;;;;;;;;39.92;18.94;100630.70;126925;1089;102855;-79
2021/08/12 08:07:14;;;;;;;;;;;;;;;39.47;19.47;100633.79;126724;1089;102895;-79
2021/08/12 08:10:02;;;;;;;;;;;;;;;38.71;19.94;100623.30;126776;1089;104185;-79
2021/08/12 08:12:50;;;;;;;;;;;;;;;38.16;20.59;100639.42;126802;1088;102795;-79
2021/08/12 08:15:38;;;;;;;;;;;;;;;38.32;20.97;100636.19;126754;1090;102901;-79
2021/08/12 08:18:27;;;;;;;;;;;;;;;38.42;20.70;100640.30;126801;1088;103023;-79
2021/08/12 08:21:15;;;;;;;;;;;;;;;37.60;20.86;100636.59;126703;1087;103316;-79
2021/08/12 08:24:02;;;;;;;;;;;;;;;37.29;21.32;100640.89;126918;1090;103101;-79
2021/08/12 08:26:50;;;;;;;;;;;;;;;37.63;21.07;100631.55;126731;1090;102917;-79
2021/08/12 08:29:37;;;;;;;;;;;;;;;37.15;21.92;100645.50;126872;1089;102879;-79
2021/08/12 08:32:25;;;;;;;;;;;;;;;37.20;22.25;100636.73;126735;1088;102998;-79
2021/08/12 08:35:13;;;;;;;;;;;;;;;36.77;22.09;100644.50;126663;1089;102854;-79
2021/08/12 08:38:00;;;;;;;;;;;;;;;36.90;22.08;100647.25;126714;1090;102958;-79
2021/08/12 08:40:48;;;;;;;;;;;;;;;37.03;22.41;100652.66;126749;1088;102885;-79
2021/08/12 08:43:38;;;;;;;;;;;;;;;36.13;22.08;100655.97;126769;1089;102960;-79
2021/08/12 08:46:26;;;;;;;;;;;;;;;36.22;22.98;100647.40;126777;1089;102168;-79
2021/08/12 08:49:14;;;;;;;;;;;;;;;36.60;23.13;100646.81;126823;1090;102857;-79
2021/08/12 08:52:02;;;;;;;;;;;;;;;36.96;23.04;100643.67;126759;1090;102930;-79
2021/08/12 08:54:50;;;;;;;;;;;;;;;36.69;22.49;100644.73;126864;1088;102997;-79
2021/08/12 08:57:38;;;;;;;;;;;;;;;36.27;23.05;100646.80;126764;1090;101063;-79
2021/08/12 09:00:26;;;;;;;;;;;;;;;35.79;23.03;100649.59;126870;1088;102894;-79
2021/08/12 09:03:15;;;;;;;;;;;;;;;35.59;22.93;100651.40;126762;1087;102930;-79
2021/08/12 09:06:05;;;;;;;;;;;;;;;35.63;23.48;100649.95;126866;1087;102753;-79
2021/08/12 09:08:57;;;;;;;;;;;;;;;35.05;23.42;100641.30;126732;1089;101361;-79
2021/08/12 09:11:45;;;;;;;;;;;;;;;34.16;24.29;100646.34;126676;1090;102906;-78
2021/08/12 09:14:34;;;;;;;;;;;;;;;33.12;25.22;100653.76;126744;1088;102863;-79
2021/08/12 09:17:23;;;;;;;;;;;;;;;32.73;26.26;100670.17;126838;1087;102861;-79
2021/08/12 09:20:14;;;;;;;;;;;;;;;33.15;26.36;100674.16;126759;1089;102872;-79
2021/08/12 09:23:02;;;;;;;;;;;;;;;33.45;25.63;100665.06;126934;1089;102867;-79
2021/08/12 09:25:50;;;;;;;;;;;;;;;33.68;26.04;100666.80;126728;1090;102959;-79
2021/08/12 09:28:38;;;;;;;;;;;;;;;33.94;25.75;100659.03;126868;1089;102853;-79
2021/08/12 09:31:25;;;;;;;;;;;;;;;34.58;25.50;100672.59;126694;1088;102831;-79
2021/08/12 09:34:13;;;;;;;;;;;;;;;34.17;25.13;100665.10;126716;1087;102881;-79
2021/08/12 09:37:05;;;;;;;;;;;;;;;33.67;25.67;100665.12;126837;1089;102896;-80
2021/08/12 09:40:02;;;;;;;;;;;;;;;33.96;25.57;100659.68;126832;1090;102852;-79
2021/08/12 09:42:56;;;;;;;;;;;;;;;33.76;25.21;100659.42;126874;1090;102879;-79
2021/08/12 09:45:44;;;;;;;;;;;;;;;33.87;25.65;100652.70;126718;1089;102661;-79
2021/08/12 09:48:32;;;;;;;;;;;;;;;33.57;25.30;100660.83;126855;1087;102940;-79
2021/08/12 09:51:28;;;;;;;;;;;;;;;33.11;26.04;100656.65;126674;1087;103025;-79
2021/08/12 09:54:26;;;;;;;;;;;;;;;33.26;26.26;100660.20;126869;1089;102865;-79
2021/08/12 09:57:17;;;;;;;;;;;;;;;33.63;26.01;100660.09;126744;1090;102865;-79
2021/08/12 10:00:23;;;;;;;;;;;;;;;34.04;25.51;100662.25;126755;1090;102711;-79
2021/08/12 10:03:19;;;;;;;;;;;;;;;34.27;25.22;100661.22;126787;1088;102988;-79
2021/08/12 10:06:17;;;;;;;;;;;;;;;34.47;25.08;100663.14;126886;1089;102985;-79
2021/08/12 10:09:14;;;;;;;;;;;;;;;34.84;25.15;100661.98;126777;1088;102837;-81
2021/08/12 10:12:01;;;;;;;;;;;;;;;34.82;23.79;100657.77;126847;1087;102939;-79
2021/08/12 10:14:50;;;;;;;;;;;;;;;34.80;23.76;100666.09;126729;1090;102853;-79
2021/08/12 10:17:41;;;;;;;;;;;;;;;34.91;24.56;100656.63;126981;1090;102851;-79
2021/08/12 10:20:30;;;;;;;;;;;;;;;35.13;24.71;100662.80;126775;1090;103060;-79
2021/08/12 10:23:20;;;;;;;;;;;;;;;35.01;24.45;100664.39;126972;1089;102871;-79
2021/08/12 10:26:08;;;;;;;;;;;;;;;34.82;24.12;100663.18;126918;1090;102923;-80
2021/08/12 10:28:59;;;;;;;;;;;;;;;34.76;24.44;100661.27;127002;1090;102911;-80
2021/08/12 10:31:48;;;;;;;;;;;;;;;34.91;24.38;100667.47;126860;1088;102923;-79
2021/08/12 10:34:39;;;;;;;;;;;;;;;34.75;24.05;100667.73;126855;1088;102985;-79
2021/08/12 10:37:26;;;;;;;;;;;;;;;34.48;24.58;100663.98;126705;1090;103016;-81
2021/08/12 10:40:19;;;;;;;;;;;;;;;34.09;24.68;100672.49;126740;1090;102841;-79
2021/08/12 10:43:10;;;;;;;;;;;;;;;33.42;25.02;100670.02;126884;1090;102876;-80
2021/08/12 10:45:58;;;;;;;;;;;;;;;33.27;25.75;100668.11;126848;1090;102927;-80
2021/08/12 10:48:46;;;;;;;;;;;;;;;33.28;26.02;100668.95;126898;1089;102972;-80
2021/08/12 10:51:46;;;;;;;;;;;;;;;33.13;25.65;100665.41;126922;1087;102862;-79
2021/08/12 10:54:41;;;;;;;;;;;;;;;32.96;26.22;100670.14;126860;1090;103138;-79
2021/08/12 10:57:29;;;;;;;;;;;;;;;32.67;25.89;100670.88;126888;1087;102855;-79
2021/08/12 11:00:41;;;;;;;;;;;;;;;32.04;26.60;100672.02;126905;1089;102972;-79
2021/08/12 11:03:52;;;;;;;;;;;;;;;31.33;27.25;100667.61;126730;1087;103007;-80
2021/08/12 11:06:44;;;;;;;;;;;;;;;31.05;28.13;100665.28;126889;1088;102858;-79
2021/08/12 11:09:54;;;;;;;;;;;;;;;30.97;27.83;100668.01;126679;1088;102901;-79
2021/08/12 11:12:57;;;;;;;;;;;;;;;30.91;28.19;100672.23;126802;1089;102827;-79
2021/08/12 11:15:55;;;;;;;;;;;;;;;31.05;28.67;100659.05;126763;1087;102664;-79
2021/08/12 11:18:46;;;;;;;;;;;;;;;30.98;28.26;100661.61;126874;1087;101907;-78
2021/08/12 11:21:36;;;;;;;;;;;;;;;30.62;28.68;100671.92;126751;1087;102847;-80
2021/08/12 11:24:27;;;;;;;;;;;;;;;30.38;28.98;100667.34;126822;1087;102989;-79
2021/08/12 11:27:14;;;;;;;;;;;;;;;30.28;29.02;100664.80;126718;1090;102863;-79
2021/08/12 11:30:22;;;;;;;;;;;;;;;30.33;29.65;100672.37;126845;1089;102850;-79
2021/08/12 11:33:29;;;;;;;;;;;;;;;30.17;28.88;100662.45;126724;1090;102865;-78
2021/08/12 11:36:18;;;;;;;;;;;;;;;30.25;29.20;100650.84;126807;1087;102931;-80
2021/08/12 11:39:07;;;;;;;;;;;;;;;30.39;29.79;100655.58;126743;1087;101852;-79
2021/08/12 11:41:55;;;;;;;;;;;;;;;30.37;28.93;100662.98;126855;1087;102660;-79
2021/08/12 11:44:47;;;;;;;;;;;;;;;30.45;29.57;100654.05;126707;1089;102881;-79
2021/08/12 11:47:34;;;;;;;;;;;;;;;30.65;29.58;100655.42;126807;1090;103077;-79
2021/08/12 11:50:26;;;;;;;;;;;;;;;30.50;29.45;100657.91;126741;1087;102853;-79
2021/08/12 11:53:15;;;;;;;;;;;;;;;30.51;29.60;100653.37;126956;1088;101842;-79
2021/08/12 11:56:09;;;;;;;;;;;;;;;30.58;29.51;100641.78;126787;1087;103004;-79
2021/08/12 11:58:58;;;;;;;;;;;;;;;30.49;29.39;100660.77;126753;1090;103007;-79
2021/08/12 12:01:45;;;;;;;;;;;;;;;30.48;29.76;100648.33;126949;1089;102847;-79
2021/08/12 12:04:33;;;;;;;;;;;;;;;30.15;29.08;100652.84;126865;1088;103042;-79
2021/08/12 12:07:20;;;;;;;;;;;;;;;29.63;29.74;100659.27;126924;1088;103363;-79
2021/08/12 12:10:08;;;;;;;;;;;;;;;29.15;30.11;100662.52;126739;1087;102955;-79
2021/08/12 12:13:16;;;;;;;;;;;;;;;28.85;30.48;100664.64;126861;1090;102883;-79
2021/08/12 12:16:10;;;;;;;;;;;;;;;28.84;30.78;100667.48;126838;1090;102901;-79
2021/08/12 12:19:06;;;;;;;;;;;;;;;28.98;31.67;100668.80;126889;1088;102905;-79
2021/08/12 12:21:53;;;;;;;;;;;;;;;29.14;31.45;100660.84;126781;1087;103217;-79
2021/08/12 12:24:45;;;;;;;;;;;;;;;29.22;31.29;100663.55;126795;1088;102852;-79
2021/08/12 12:27:33;;;;;;;;;;;;;;;29.03;31.09;100661.09;126749;1089;102651;-79
2021/08/12 12:30:22;;;;;;;;;;;;;;;28.85;31.24;100664.64;126842;1089;102724;-79
2021/08/12 12:33:11;;;;;;;;;;;;;;;28.66;31.57;100667.52;126801;1088;102862;-79
2021/08/12 12:36:02;;;;;;;;;;;;;;;28.28;31.74;100677.59;126861;1087;102886;-79
2021/08/12 12:38:51;;;;;;;;;;;;;;;27.88;32.23;100664.58;126734;1088;103332;-79
2021/08/12 12:41:39;;;;;;;;;;;;;;;27.57;32.87;100663.17;126966;1087;103383;-79
2021/08/12 12:44:27;;;;;;;;;;;;;;;27.24;33.39;100669.93;126824;1090;102923;-79
2021/08/12 12:47:29;;;;;;;;;;;;;;;27.06;33.83;100668.01;126721;1089;102896;-79
2021/08/12 12:50:17;;;;;;;;;;;;;;;27.13;34.70;100665.61;126991;1089;103055;-80
2021/08/12 12:53:05;;;;;;;;;;;;;;;27.25;34.22;100663.58;126825;1087;102936;-80
2021/08/12 12:55:52;;;;;;;;;;;;;;;27.33;34.38;100663.71;126927;1089;103033;-80
2021/08/12 12:58:40;;;;;;;;;;;;;;;27.42;34.10;100652.09;126763;1090;102933;-80
2021/08/12 13:01:27;;;;;;;;;;;;;;;27.46;34.02;100656.16;126963;1090;102844;-80
2021/08/12 13:04:21;;;;;;;;;;;;;;;27.57;34.24;100653.30;126834;1090;101889;-80
2021/08/12 13:07:31;;;;;;;;;;;;;;;27.68;34.21;100653.14;126860;1088;103359;-80
2021/08/12 13:10:20;;;;;;;;;;;;;;;27.82;33.83;100650.92;126885;1088;102645;-79
2021/08/12 13:13:07;;;;;;;;;;;;;;;27.80;33.17;100644.87;126867;1090;102853;-79
2021/08/12 13:15:54;;;;;;;;;;;;;;;27.83;33.38;100639.20;126779;1090;103303;-79
2021/08/12 13:18:50;;;;;;;;;;;;;;;27.86;33.26;100642.45;126858;1087;102905;-79
2021/08/12 13:21:38;;;;;;;;;;;;;;;27.89;33.19;100638.63;126696;1088;102881;-79
2021/08/12 13:24:37;;;;;;;;;;;;;;;27.80;32.88;100644.87;126928;1087;102946;-79
2021/08/12 13:27:25;;;;;;;;;;;;;;;27.75;33.24;100647.17;126730;1087;103152;-79
2021/08/12 13:30:14;;;;;;;;;;;;;;;27.69;33.13;100641.42;126866;1090;102931;-79
2021/08/12 13:33:22;;;;;;;;;;;;;;;27.75;33.93;100641.81;126723;1090;102925;-80
2021/08/12 13:36:10;;;;;;;;;;;;;;;27.77;33.53;100631.77;126849;1088;103276;-80
2021/08/12 13:38:58;;;;;;;;;;;;;;;27.71;33.58;100630.55;126790;1090;102927;-80
2021/08/12 13:42:00;;;;;;;;;;;;;;;27.69;33.98;100630.70;126859;1090;102868;-80
2021/08/12 13:44:48;;;;;;;;;;;;;;;27.64;33.57;100622.25;126836;1089;101819;-80
2021/08/12 13:47:36;;;;;;;;;;;;;;;27.57;33.91;100631.86;126904;1090;102958;-80
2021/08/12 13:50:23;;;;;;;;;;;;;;;27.46;33.85;100625.84;126894;1088;102645;-80
2021/08/12 13:53:11;;;;;;;;;;;;;;;27.31;33.72;100617.48;126831;1090;102682;-80
2021/08/12 13:55:59;;;;;;;;;;;;;;;27.23;33.40;100620.05;126888;1088;103093;-80
2021/08/12 13:58:46;;;;;;;;;;;;;;;27.20;33.45;100620.34;126741;1087;102956;-80
2021/08/12 14:01:35;;;;;;;;;;;;;;;27.10;33.73;100615.86;126890;1090;103342;-80
2021/08/12 14:04:23;;;;;;;;;;;;;;;26.98;32.95;100616.17;126728;1087;102948;-80
2021/08/12 14:07:22;;;;;;;;;;;;;;;26.87;32.91;100619.02;126730;1087;102878;-80
2021/08/12 14:10:11;;;;;;;;;;;;;;;26.75;33.32;100621.00;126788;1088;102860;-80
2021/08/12 14:12:58;;;;;;;;;;;;;;;26.65;33.67;100620.19;126893;1090;102857;-79